createdAt,value
2017-11-21T06:25:09.395Z,99.99
2017-11-21T06:31:16.798Z,99.99
2017-11-21T06:32:39.922Z,99.99
2017-11-21T06:33:39.907Z,99.99
2017-11-21T06:35:32.837Z,99.99
2017-11-21T06:36:32.847Z,99.99
2017-11-21T06:37:32.869Z,99.99
2017-11-21T06:38:32.894Z,99.99
2017-11-21T06:39:32.907Z,99.99
2017-11-21T06:40:32.928Z,99.99
2017-11-21T06:41:32.947Z,99.99
2017-11-21T06:42:32.961Z,99.99
2017-11-21T06:43:32.983Z,99.99
2017-11-21T06:44:32.999Z,99.99
2017-11-21T06:45:33.026Z,99.99
2017-11-21T06:46:33.043Z,99.99
2017-11-21T06:47:33.071Z,99.99
2017-11-21T06:48:33.081Z,99.99
2017-11-21T06:49:33.101Z,99.99
2017-11-21T06:50:33.127Z,99.99
2017-11-21T06:51:33.141Z,99.99
2017-11-21T06:52:33.166Z,99.99
2017-11-21T06:53:33.182Z,99.99
2017-11-21T06:54:33.199Z,99.99
2017-11-21T06:55:33.224Z,99.99
2017-11-21T06:56:33.239Z,99.99
2017-11-21T06:57:33.263Z,99.99
2017-11-21T06:58:33.278Z,99.99
2017-11-21T06:59:33.300Z,99.99
2017-11-21T07:00:33.325Z,99.99
2017-11-21T07:01:33.341Z,99.99
2017-11-21T07:02:33.357Z,99.99
2017-11-21T07:03:33.385Z,99.99
2017-11-21T07:04:33.410Z,99.99
2017-11-21T07:05:33.421Z,99.99
2017-11-21T07:06:33.440Z,99.99
2017-11-21T07:07:33.458Z,99.99
2017-11-21T07:08:33.476Z,99.99
2017-11-21T07:09:33.496Z,99.99
2017-11-21T07:10:33.518Z,99.99
2017-11-21T07:11:33.539Z,99.99
2017-11-21T07:12:33.563Z,99.99
2017-11-21T07:13:33.581Z,99.99
2017-11-21T07:14:33.599Z,99.99
2017-11-21T07:15:33.618Z,99.99
2017-11-21T07:16:33.641Z,99.99
2017-11-21T07:17:33.656Z,99.99
2017-11-21T07:18:33.705Z,99.99
2017-11-21T07:19:33.704Z,99.99
2017-11-21T07:20:33.720Z,99.99
2017-11-21T07:21:33.740Z,99.99
2017-11-21T07:22:33.763Z,99.99
2017-11-21T07:23:33.777Z,99.99
2017-11-21T07:24:33.801Z,99.99
2017-11-21T07:25:33.820Z,99.99
2017-11-21T07:26:33.842Z,99.99
2017-11-21T07:27:33.860Z,99.99
2017-11-21T07:28:33.881Z,99.99
2017-11-21T07:29:33.902Z,99.99
2017-11-21T07:30:33.929Z,99.99
2017-11-21T07:31:33.941Z,99.99
2017-11-21T07:32:33.964Z,99.99
2017-11-21T07:33:33.983Z,99.99
2017-11-21T07:34:34.002Z,99.99
2017-11-21T07:35:34.033Z,99.99
2017-11-21T07:36:34.042Z,99.99
2017-11-21T07:37:34.077Z,99.99
2017-11-21T07:38:34.082Z,99.99
2017-11-21T07:39:34.101Z,99.99
2017-11-21T07:40:34.140Z,99.99
2017-11-21T07:41:34.157Z,99.99
2017-11-21T07:42:34.177Z,99.99
2017-11-21T07:43:34.230Z,99.99
2017-11-21T07:44:34.201Z,99.99
2017-11-21T07:45:34.228Z,99.99
2017-11-21T07:46:34.261Z,99.99
2017-11-21T07:47:34.270Z,99.99
2017-11-21T07:48:34.287Z,99.99
2017-11-21T07:49:34.311Z,99.99
2017-11-21T07:50:34.327Z,99.99
2017-11-21T07:51:34.353Z,99.99
2017-11-21T07:52:34.367Z,99.99
2017-11-21T07:53:35.324Z,99.99
2017-11-21T07:54:34.404Z,99.99
2017-11-21T07:55:34.429Z,99.99
2017-11-21T07:56:34.451Z,99.99
2017-11-21T07:57:34.463Z,99.99
2017-11-21T07:58:34.493Z,99.99
2017-11-21T07:59:34.509Z,99.99
2017-11-21T08:00:34.532Z,99.99
2017-11-21T08:01:34.573Z,99.99
2017-11-21T08:02:34.571Z,99.99
2017-11-21T08:03:34.585Z,99.99
2017-11-21T08:04:34.613Z,99.99
2017-11-21T08:05:34.633Z,99.99
2017-11-21T08:06:34.655Z,99.99
2017-11-21T08:07:34.677Z,99.99
2017-11-21T08:08:34.693Z,99.99
2017-11-21T08:09:34.716Z,99.99
2017-11-21T08:10:34.734Z,99.99
2017-11-21T08:11:34.753Z,99.99
2017-11-21T08:12:34.788Z,99.99
2017-11-21T08:13:34.809Z,99.99
2017-11-21T08:14:34.817Z,99.99
2017-11-21T08:15:34.837Z,99.99
2017-11-21T08:16:34.861Z,99.99
2017-11-21T08:17:34.882Z,99.99
2017-11-21T08:18:34.896Z,99.99
2017-11-21T08:19:34.919Z,99.99
2017-11-21T08:20:34.941Z,99.99
2017-11-21T08:21:34.958Z,99.99
2017-11-21T08:22:34.984Z,99.99
2017-11-21T08:23:35.002Z,99.99
2017-11-21T08:24:35.026Z,99.99
2017-11-21T08:25:35.044Z,99.99
2017-11-21T08:26:35.063Z,99.99
2017-11-21T08:27:35.098Z,99.99
2017-11-21T08:28:35.101Z,99.99
2017-11-21T08:29:35.134Z,99.99
2017-11-21T08:30:35.153Z,99.99
2017-11-21T08:31:35.180Z,99.99
2017-11-21T08:32:35.194Z,99.99
2017-11-21T08:33:35.212Z,99.99
2017-11-21T08:34:35.221Z,99.99
2017-11-21T08:35:35.257Z,99.99
2017-11-21T08:36:35.268Z,99.99
2017-11-21T08:37:35.291Z,99.99
2017-11-21T08:38:35.309Z,99.99
2017-11-21T08:39:35.326Z,99.99
2017-11-21T08:40:35.354Z,99.99
2017-11-21T08:41:35.372Z,99.99
2017-11-21T08:42:35.389Z,99.99
2017-11-21T08:43:35.412Z,99.99
2017-11-21T08:44:35.433Z,99.99
2017-11-21T08:45:35.460Z,99.99
2017-11-21T08:46:35.470Z,99.99
2017-11-21T08:47:35.491Z,99.99
2017-11-21T08:48:35.519Z,99.99
2017-11-21T08:49:35.532Z,99.99
2017-11-21T08:50:35.559Z,99.99
2017-11-21T08:51:35.580Z,99.99
2017-11-21T08:52:35.599Z,99.99
2017-11-21T08:53:35.615Z,99.99
2017-11-21T08:54:35.633Z,99.99
2017-11-21T08:55:35.658Z,99.99
2017-11-21T08:56:35.679Z,99.99
2017-11-21T08:57:35.697Z,99.99
2017-11-21T08:58:35.724Z,99.99
2017-11-21T08:59:35.741Z,99.99
2017-11-21T09:00:35.763Z,99.99
2017-11-21T09:01:35.781Z,99.99
2017-11-21T09:02:35.802Z,99.99
2017-11-21T09:03:35.816Z,99.99
2017-11-21T09:04:35.839Z,99.99
2017-11-21T09:05:35.876Z,99.99
2017-11-21T09:06:35.890Z,99.99
2017-11-21T09:07:35.902Z,99.99
2017-11-21T09:08:35.923Z,99.99
2017-11-21T09:09:35.943Z,99.99
2017-11-21T09:10:35.962Z,99.99
2017-11-21T09:11:35.984Z,99.99
2017-11-21T09:12:36.011Z,99.99
2017-11-21T09:13:36.027Z,99.99
2017-11-21T09:14:36.050Z,99.99
2017-11-21T09:15:36.072Z,99.99
2017-11-21T09:16:36.093Z,99.99
2017-11-21T09:17:36.110Z,99.99
2017-11-21T09:18:36.129Z,99.99
2017-11-21T09:19:36.162Z,99.99
2017-11-21T09:20:36.175Z,99.99
2017-11-21T09:21:36.198Z,99.99
2017-11-21T09:22:36.210Z,99.99
2017-11-21T09:23:36.231Z,99.99
2017-11-21T09:24:36.274Z,99.99
2017-11-21T09:25:36.276Z,99.99
2017-11-21T09:26:36.290Z,99.99
2017-11-21T09:27:36.313Z,99.99
2017-11-21T09:28:36.328Z,99.99
2017-11-21T09:29:36.353Z,99.99
2017-11-21T09:30:36.376Z,99.99
2017-11-21T09:31:36.393Z,99.99
2017-11-21T09:32:36.418Z,99.99
2017-11-21T09:33:36.436Z,99.99
2017-11-21T09:34:36.454Z,99.99
2017-11-21T09:35:36.504Z,99.99
2017-11-21T09:36:36.552Z,99.99
2017-11-21T09:37:36.530Z,99.99
2017-11-21T09:38:36.558Z,99.99
2017-11-21T09:39:36.576Z,99.99
2017-11-21T09:40:36.590Z,99.99
2017-11-21T09:41:36.616Z,99.99
2017-11-21T09:42:36.688Z,99.99
2017-11-21T09:43:36.642Z,99.99
2017-11-21T09:44:36.663Z,99.99
2017-11-21T09:45:36.705Z,99.99
2017-11-21T09:46:36.717Z,99.99
2017-11-21T09:47:36.764Z,99.99
2017-11-21T09:48:36.770Z,99.99
2017-11-21T09:49:36.772Z,99.99
2017-11-21T09:50:36.814Z,99.99
2017-11-21T09:51:36.808Z,99.99
2017-11-21T09:52:36.850Z,99.99
2017-11-21T09:53:36.861Z,99.99
2017-11-21T09:54:36.897Z,99.99
2017-11-21T09:55:36.897Z,99.99
2017-11-21T09:56:36.907Z,99.99
2017-11-21T09:57:36.928Z,99.99
2017-11-21T09:58:36.950Z,99.99
2017-11-21T09:59:37.000Z,99.99
2017-11-21T10:00:36.999Z,99.99
2017-11-21T10:01:37.077Z,99.99
2017-11-21T10:02:37.055Z,99.99
2017-11-21T10:03:37.054Z,99.99
2017-11-21T10:04:37.076Z,99.99
2017-11-21T10:05:37.092Z,99.99
2017-11-21T10:06:37.128Z,99.99
2017-11-21T10:07:37.133Z,99.99
2017-11-21T10:08:37.155Z,99.99
2017-11-21T10:09:37.175Z,99.99
2017-11-21T10:10:37.213Z,99.99
2017-11-21T10:11:37.224Z,99.99
2017-11-21T10:12:37.236Z,99.99
2017-11-21T10:13:37.264Z,99.99
2017-11-21T10:14:37.278Z,99.99
2017-11-21T10:15:37.301Z,99.99
2017-11-21T10:16:37.336Z,99.99
2017-11-21T10:17:37.344Z,99.99
2017-11-21T10:18:37.370Z,99.99
2017-11-21T10:19:37.382Z,99.99
2017-11-21T10:20:37.422Z,99.99
2017-11-21T10:21:37.429Z,99.99
2017-11-21T10:22:37.441Z,99.99
2017-11-21T10:23:37.464Z,99.99
2017-11-21T10:24:37.486Z,99.99
2017-11-21T10:25:37.509Z,99.99
2017-11-21T10:26:37.531Z,99.99
2017-11-21T10:27:37.540Z,99.99
2017-11-21T10:28:37.575Z,99.99
2017-11-21T10:29:37.593Z,99.99
2017-11-21T10:30:37.609Z,99.99
2017-11-21T10:31:37.630Z,99.99
2017-11-21T10:32:37.654Z,99.99
2017-11-21T10:33:37.681Z,99.99
2017-11-21T10:34:37.694Z,99.99
2017-11-21T10:35:37.711Z,99.99
2017-11-21T10:36:37.728Z,99.99
2017-11-21T10:37:37.756Z,99.99
2017-11-21T10:38:37.766Z,99.99
2017-11-21T10:39:37.804Z,99.99
2017-11-21T10:40:37.814Z,99.99
2017-11-21T10:41:37.841Z,99.99
2017-11-21T10:42:37.857Z,99.99
2017-11-21T10:43:37.878Z,99.99
2017-11-21T10:44:37.890Z,99.99
2017-11-21T10:45:37.920Z,99.99
2017-11-21T10:46:37.939Z,99.99
2017-11-21T10:47:37.962Z,99.99
2017-11-21T10:48:37.988Z,99.99
2017-11-21T10:49:38.021Z,99.99
2017-11-21T10:50:38.027Z,99.99
2017-11-21T10:51:38.039Z,99.99
2017-11-21T10:52:38.076Z,99.99
2017-11-21T10:53:38.091Z,99.99
2017-11-21T10:54:38.118Z,99.99
2017-11-21T10:55:38.142Z,99.99
2017-11-21T10:56:38.152Z,99.99
2017-11-21T10:57:38.170Z,99.99
2017-11-21T10:58:38.200Z,99.99
2017-11-21T10:59:38.211Z,99.99
2017-11-21T11:00:38.233Z,99.99
2017-11-21T11:01:38.257Z,99.99
2017-11-21T11:02:38.277Z,99.99
2017-11-21T11:03:38.313Z,99.99
2017-11-21T11:04:38.320Z,99.99
2017-11-21T11:05:38.337Z,99.99
2017-11-21T11:06:38.353Z,99.99
2017-11-21T11:07:38.382Z,99.99
2017-11-21T11:08:38.397Z,99.99
2017-11-21T11:09:38.419Z,99.99
2017-11-21T11:10:38.434Z,99.99
2017-11-21T11:11:38.465Z,99.99
2017-11-21T11:12:38.475Z,99.99
2017-11-21T11:13:38.498Z,99.99
2017-11-21T11:14:38.508Z,99.99
2017-11-21T11:15:38.536Z,99.99
2017-11-21T11:16:38.549Z,99.99
2017-11-21T11:17:38.578Z,99.99
2017-11-21T11:18:38.615Z,99.99
2017-11-21T11:19:38.617Z,99.99
2017-11-21T11:20:38.642Z,99.99
2017-11-21T11:21:38.665Z,99.99
2017-11-21T11:22:38.690Z,99.99
2017-11-21T11:23:38.699Z,99.99
2017-11-21T11:24:38.722Z,99.99
2017-11-21T11:25:38.739Z,99.99
2017-11-21T11:26:38.757Z,99.99
2017-11-21T11:27:38.786Z,99.99
2017-11-21T11:28:38.801Z,99.99
2017-11-21T11:29:38.830Z,99.99
2017-11-21T11:30:38.844Z,99.99
2017-11-21T11:31:38.861Z,99.99
2017-11-21T11:32:38.886Z,99.99
2017-11-21T11:33:38.904Z,99.99
2017-11-21T11:34:38.925Z,99.99
2017-11-21T11:35:38.945Z,99.99
2017-11-21T11:36:38.962Z,99.99
2017-11-21T11:37:38.986Z,99.99
2017-11-21T11:38:39.029Z,99.99
2017-11-21T11:39:39.033Z,99.99
2017-11-21T11:40:39.055Z,99.99
2017-11-21T11:41:39.080Z,99.99
2017-11-21T11:42:39.086Z,99.99
2017-11-21T11:43:39.109Z,99.99
2017-11-21T11:44:39.132Z,99.99
2017-11-21T11:45:39.164Z,99.99
2017-11-21T11:46:39.167Z,99.99
2017-11-21T11:47:39.184Z,99.99
2017-11-21T11:48:39.225Z,99.99
2017-11-21T11:49:39.228Z,99.99
2017-11-21T11:50:39.251Z,99.99
2017-11-21T11:51:39.286Z,99.99
2017-11-21T11:52:39.290Z,99.99
2017-11-21T11:53:39.339Z,99.99
2017-11-21T11:54:39.359Z,99.99
2017-11-21T11:55:39.350Z,99.99
2017-11-21T11:56:39.410Z,99.99
2017-11-21T11:57:39.400Z,99.99
2017-11-21T11:58:39.431Z,99.99
2017-11-21T11:59:39.434Z,99.99
2017-11-21T12:00:39.457Z,99.99
2017-11-21T12:01:39.473Z,99.99
2017-11-21T12:02:39.493Z,99.99
2017-11-21T12:03:39.511Z,99.99
2017-11-21T12:04:39.532Z,99.99
2017-11-21T12:05:39.552Z,99.99
2017-11-21T12:06:39.627Z,99.99
2017-11-21T12:07:39.599Z,99.99
2017-11-21T12:08:39.617Z,99.99
2017-11-21T12:09:39.672Z,99.99
2017-11-21T12:10:39.656Z,99.99
2017-11-21T12:11:39.672Z,99.99
2017-11-21T12:12:39.747Z,99.99
2017-11-21T12:13:39.742Z,99.99
2017-11-21T12:14:39.730Z,99.99
2017-11-21T12:15:39.759Z,99.99
2017-11-21T12:16:39.772Z,99.99
2017-11-21T12:17:39.792Z,99.99
2017-11-21T12:18:39.815Z,99.99
2017-11-21T12:19:39.839Z,99.99
2017-11-21T12:20:39.849Z,99.99
2017-11-21T12:21:39.874Z,99.99
2017-11-21T12:22:39.890Z,99.99
2017-11-21T12:23:39.911Z,99.99
2017-11-21T12:24:39.930Z,99.99
2017-11-21T12:25:39.953Z,99.99
2017-11-21T12:26:39.971Z,99.99
2017-11-21T12:27:39.996Z,99.99
2017-11-21T12:28:40.016Z,99.99
2017-11-21T12:29:40.037Z,99.99
2017-11-21T12:30:40.053Z,99.99
2017-11-21T12:31:40.077Z,99.99
2017-11-21T12:32:40.099Z,99.99
2017-11-21T12:33:40.118Z,99.99
2017-11-21T12:34:40.135Z,99.99
2017-11-21T12:35:40.197Z,99.99
2017-11-21T12:36:40.182Z,99.99
2017-11-21T12:37:40.201Z,99.99
2017-11-21T12:38:40.223Z,99.99
2017-11-21T12:39:40.246Z,99.99
2017-11-21T12:40:40.261Z,99.99
2017-11-21T12:41:40.280Z,99.99
2017-11-21T12:42:40.299Z,99.99
2017-11-21T12:43:40.310Z,99.99
2017-11-21T12:44:40.334Z,99.99
2017-11-21T12:45:40.364Z,99.99
2017-11-21T12:46:40.380Z,99.99
2017-11-21T12:47:40.397Z,99.99
2017-11-21T12:48:40.418Z,99.99
2017-11-21T12:49:40.440Z,99.99
2017-11-21T12:50:40.462Z,99.99
2017-11-21T12:51:40.485Z,99.99
2017-11-21T12:52:40.495Z,99.99
2017-11-21T12:53:40.523Z,99.99
2017-11-21T12:54:40.534Z,99.99
2017-11-21T12:55:40.567Z,99.99
2017-11-21T12:56:40.579Z,99.99
2017-11-21T12:57:40.604Z,99.99
2017-11-21T12:58:40.630Z,99.99
2017-11-21T12:59:40.638Z,99.99
2017-11-21T13:00:40.662Z,99.99
2017-11-21T13:01:40.686Z,99.99
2017-11-21T13:02:40.699Z,99.99
2017-11-21T13:03:40.723Z,99.99
2017-11-21T13:04:40.745Z,99.99
2017-11-21T13:05:40.758Z,99.99
2017-11-21T13:06:40.784Z,99.99
2017-11-21T13:07:40.800Z,99.99
2017-11-21T13:08:40.822Z,99.99
2017-11-21T13:09:40.834Z,99.99
2017-11-21T13:10:40.861Z,99.99
2017-11-21T13:11:40.884Z,99.99
2017-11-21T13:12:40.901Z,99.99
2017-11-21T13:13:40.979Z,99.99
2017-11-21T13:14:40.938Z,99.99
2017-11-21T13:15:40.961Z,99.99
2017-11-21T13:16:40.983Z,99.99
2017-11-21T13:17:41.002Z,99.99
2017-11-21T13:18:41.019Z,99.99
2017-11-21T13:19:41.051Z,99.99
2017-11-21T13:20:41.064Z,99.99
2017-11-21T13:21:41.080Z,99.99
2017-11-21T13:22:41.099Z,99.99
2017-11-21T13:23:41.121Z,99.99
2017-11-21T13:24:41.142Z,99.99
2017-11-21T13:25:41.163Z,99.99
2017-11-21T13:26:41.178Z,99.99
2017-11-21T13:27:41.198Z,99.99
2017-11-21T13:28:41.221Z,99.99
2017-11-21T13:29:41.241Z,99.99
2017-11-21T13:30:41.259Z,99.99
2017-11-21T13:31:41.279Z,99.99
2017-11-21T13:32:41.306Z,99.99
2017-11-21T13:33:41.325Z,99.99
2017-11-21T13:34:41.341Z,99.99
2017-11-21T13:35:41.360Z,99.99
2017-11-21T13:36:41.391Z,99.99
2017-11-21T13:37:41.404Z,99.99
2017-11-21T13:38:41.422Z,99.99
2017-11-21T13:39:41.448Z,99.99
2017-11-21T13:40:41.461Z,99.99
2017-11-21T13:41:41.477Z,99.99
2017-11-21T13:42:41.505Z,99.99
2017-11-21T13:43:41.528Z,99.99
2017-11-21T13:44:41.542Z,99.99
2017-11-21T13:45:41.566Z,99.99
2017-11-21T13:46:41.576Z,99.99
2017-11-21T13:47:41.606Z,99.99
2017-11-21T13:48:41.624Z,99.99
2017-11-21T13:49:41.640Z,99.99
2017-11-21T13:50:41.663Z,99.99
2017-11-21T13:51:41.690Z,99.99
2017-11-21T13:52:41.704Z,99.99
2017-11-21T13:53:41.738Z,99.99
2017-11-21T13:54:41.739Z,99.99
2017-11-21T13:55:41.765Z,99.99
2017-11-21T13:56:41.784Z,99.99
2017-11-21T13:57:41.803Z,99.99
2017-11-21T13:58:41.822Z,99.99
2017-11-21T13:59:41.842Z,99.99
2017-11-21T14:00:41.864Z,99.99
2017-11-21T14:01:41.883Z,99.99
2017-11-21T14:02:41.902Z,99.99
2017-11-21T14:03:41.922Z,99.99
2017-11-21T14:04:41.946Z,99.99
2017-11-21T14:05:41.967Z,99.99
2017-11-21T14:06:41.984Z,99.99
2017-11-21T14:07:42.002Z,99.99
2017-11-21T14:08:42.023Z,99.99
2017-11-21T14:09:42.036Z,99.99
2017-11-21T14:10:42.063Z,99.99
2017-11-21T14:11:42.078Z,99.99
2017-11-21T14:12:42.105Z,99.99
2017-11-21T14:13:42.125Z,99.99
2017-11-21T14:14:42.149Z,99.99
2017-11-21T14:15:42.162Z,99.99
2017-11-21T14:16:42.188Z,99.99
2017-11-21T14:17:42.206Z,99.99
2017-11-21T14:18:42.221Z,99.99
2017-11-21T14:19:42.243Z,99.99
2017-11-21T14:20:42.269Z,99.99
2017-11-21T14:21:42.284Z,99.99
2017-11-21T14:22:42.297Z,99.99
2017-11-21T14:23:42.318Z,99.99
2017-11-21T14:24:42.339Z,99.99
2017-11-21T14:25:42.356Z,99.99
2017-11-21T14:26:42.383Z,99.99
2017-11-21T14:27:42.401Z,99.99
2017-11-21T14:28:42.418Z,99.99
2017-11-21T14:29:42.437Z,99.99
2017-11-21T14:30:42.457Z,99.99
2017-11-21T14:31:42.479Z,99.99
2017-11-21T14:32:42.499Z,99.99
2017-11-21T14:33:42.517Z,99.99
2017-11-21T14:34:42.531Z,99.99
2017-11-21T14:35:42.571Z,99.99
2017-11-21T14:36:42.590Z,99.99
2017-11-21T14:37:42.603Z,99.99
2017-11-21T14:38:42.614Z,99.99
2017-11-21T14:39:42.641Z,99.99
2017-11-21T14:40:42.650Z,99.99
2017-11-21T14:41:42.686Z,99.99
2017-11-21T14:42:42.697Z,99.99
2017-11-21T14:43:42.715Z,99.99
2017-11-21T14:44:42.737Z,99.99
2017-11-21T14:45:42.755Z,99.99
2017-11-21T14:46:42.775Z,99.99
2017-11-21T14:47:42.796Z,99.99
2017-11-21T14:48:42.817Z,99.99
2017-11-21T14:49:42.835Z,99.99
2017-11-21T14:50:42.856Z,99.99
2017-11-21T14:51:42.880Z,99.99
2017-11-21T14:52:42.925Z,99.99
2017-11-21T14:53:42.915Z,99.99
2017-11-21T14:54:42.934Z,99.99
2017-11-21T14:55:42.955Z,99.94
2017-11-21T14:56:42.983Z,99.99
2017-11-21T14:57:42.994Z,99.99
2017-11-21T14:58:43.013Z,99.99
2017-11-21T14:59:43.033Z,99.75
2017-11-21T15:00:43.054Z,99.99
2017-11-21T15:01:43.071Z,99.94
2017-11-21T15:02:43.086Z,99.99
2017-11-21T15:03:43.117Z,99.99
2017-11-21T15:04:43.130Z,99.99
2017-11-21T15:05:43.157Z,99.84
2017-11-21T15:06:43.177Z,99.94
2017-11-21T15:07:43.192Z,99.99
2017-11-21T15:08:43.209Z,99.84
2017-11-21T15:09:43.233Z,99.75
2017-11-21T15:10:43.256Z,99.99
2017-11-21T15:11:43.269Z,99.99
2017-11-21T15:12:43.295Z,99.65
2017-11-21T15:13:43.344Z,99.84
2017-11-21T15:14:43.325Z,99.84
2017-11-21T15:15:43.352Z,99.94
2017-11-21T15:16:43.369Z,99.99
2017-11-21T15:17:43.390Z,99.99
2017-11-21T15:18:43.409Z,99.84
2017-11-21T15:19:43.439Z,99.84
2017-11-21T15:20:43.447Z,99.84
2017-11-21T15:21:43.472Z,99.84
2017-11-21T15:22:43.490Z,99.65
2017-11-21T15:23:43.509Z,99.94
2017-11-21T15:24:43.526Z,99.99
2017-11-21T15:25:43.542Z,99.65
2017-11-21T15:26:43.564Z,99.99
2017-11-21T15:27:43.589Z,99.99
2017-11-21T15:28:43.608Z,99.99
2017-11-21T15:29:43.621Z,99.84
2017-11-21T15:30:43.643Z,99.75
2017-11-21T15:31:43.666Z,99.75
2017-11-21T15:32:43.694Z,99.46
2017-11-21T15:33:43.700Z,99.46
2017-11-21T15:34:43.723Z,99.75
2017-11-21T15:35:43.757Z,99.55
2017-11-21T15:36:43.767Z,98.99
2017-11-21T15:37:43.794Z,99.65
2017-11-21T15:38:43.811Z,99.94
2017-11-21T15:39:43.828Z,99.18
2017-11-21T15:40:43.848Z,99.46
2017-11-21T15:41:43.874Z,99.55
2017-11-21T15:42:43.881Z,98.70
2017-11-21T15:43:43.900Z,98.99
2017-11-21T15:44:43.922Z,99.27
2017-11-21T15:45:43.940Z,98.99
2017-11-21T15:46:43.967Z,98.79
2017-11-21T15:47:43.984Z,99.18
2017-11-21T15:48:44.007Z,99.65
2017-11-21T15:49:44.021Z,99.65
2017-11-21T15:50:44.038Z,99.27
2017-11-21T15:51:44.066Z,99.84
2017-11-21T15:52:44.101Z,99.84
2017-11-21T15:53:44.110Z,99.18
2017-11-21T15:54:44.117Z,98.70
2017-11-21T15:55:44.142Z,98.79
2017-11-21T15:56:44.165Z,98.79
2017-11-21T15:57:44.179Z,98.70
2017-11-21T15:58:44.193Z,98.60
2017-11-21T15:59:44.223Z,99.27
2017-11-21T16:00:44.239Z,98.89
2017-11-21T16:01:44.256Z,99.18
2017-11-21T16:02:44.277Z,98.79
2017-11-21T16:03:44.294Z,98.99
2017-11-21T16:04:44.313Z,98.70
2017-11-21T16:05:44.333Z,98.41
2017-11-21T16:06:44.352Z,98.79
2017-11-21T16:07:44.381Z,98.32
2017-11-21T16:08:44.394Z,98.51
2017-11-21T16:09:44.413Z,99.08
2017-11-21T16:10:44.447Z,98.13
2017-11-21T16:11:44.452Z,98.13
2017-11-21T16:12:44.471Z,98.03
2017-11-21T16:13:44.493Z,98.32
2017-11-21T16:14:44.504Z,97.94
2017-11-21T16:15:44.531Z,98.13
2017-11-21T16:16:44.550Z,97.65
2017-11-21T16:17:44.571Z,98.41
2017-11-21T16:18:44.584Z,98.32
2017-11-21T16:19:44.614Z,97.84
2017-11-21T16:20:44.632Z,97.65
2017-11-21T16:21:44.647Z,97.84
2017-11-21T16:22:44.677Z,98.03
2017-11-21T16:23:44.698Z,97.70
2017-11-21T16:24:44.712Z,97.79
2017-11-21T16:25:44.728Z,98.41
2017-11-21T16:26:44.748Z,98.27
2017-11-21T16:27:44.764Z,97.65
2017-11-21T16:28:44.787Z,98.13
2017-11-21T16:29:44.801Z,97.65
2017-11-21T16:30:44.824Z,97.56
2017-11-21T16:31:44.848Z,97.56
2017-11-21T16:32:44.864Z,97.65
2017-11-21T16:33:44.887Z,97.65
2017-11-21T16:34:44.911Z,97.46
2017-11-21T16:35:44.925Z,96.70
2017-11-21T16:36:44.968Z,96.32
2017-11-21T16:37:44.966Z,97.56
2017-11-21T16:38:44.979Z,96.89
2017-11-21T16:39:45.004Z,96.89
2017-11-21T16:40:45.029Z,97.27
2017-11-21T16:41:45.043Z,97.84
2017-11-21T16:42:45.058Z,97.84
2017-11-21T16:43:45.090Z,97.65
2017-11-21T16:44:45.109Z,97.27
2017-11-21T16:45:45.122Z,97.08
2017-11-21T16:46:45.138Z,96.89
2017-11-21T16:47:45.172Z,97.27
2017-11-21T16:48:45.179Z,97.65
2017-11-21T16:49:45.197Z,97.65
2017-11-21T16:50:45.217Z,96.80
2017-11-21T16:51:45.243Z,96.89
2017-11-21T16:52:45.255Z,96.89
2017-11-21T16:53:45.278Z,97.36
2017-11-21T16:54:45.295Z,96.70
2017-11-21T16:55:45.321Z,97.17
2017-11-21T16:56:45.337Z,96.89
2017-11-21T16:57:45.367Z,96.80
2017-11-21T16:58:45.378Z,96.32
2017-11-21T16:59:45.396Z,96.22
2017-11-21T17:00:45.422Z,96.80
2017-11-21T17:01:45.436Z,96.51
2017-11-21T17:02:45.452Z,95.94
2017-11-21T17:03:45.475Z,96.22
2017-11-21T17:04:45.492Z,96.70
2017-11-21T17:05:45.515Z,96.22
2017-11-21T17:06:45.534Z,95.94
2017-11-21T17:07:45.552Z,96.32
2017-11-21T17:08:45.565Z,95.84
2017-11-21T17:09:45.591Z,96.03
2017-11-21T17:10:45.607Z,96.17
2017-11-21T17:11:45.631Z,96.41
2017-11-21T17:12:45.666Z,96.46
2017-11-21T17:13:45.672Z,96.03
2017-11-21T17:14:45.688Z,96.12
2017-11-21T17:15:45.707Z,96.27
2017-11-21T17:16:45.728Z,96.12
2017-11-21T17:17:45.744Z,96.51
2017-11-21T17:18:45.767Z,96.17
2017-11-21T17:19:45.781Z,96.41
2017-11-21T17:20:45.808Z,96.27
2017-11-21T17:21:45.828Z,95.75
2017-11-21T17:22:45.848Z,96.03
2017-11-21T17:23:45.864Z,96.03
2017-11-21T17:24:45.885Z,96.32
2017-11-21T17:25:45.904Z,96.32
2017-11-21T17:26:45.922Z,96.22
2017-11-21T17:27:45.944Z,96.22
2017-11-21T17:28:45.962Z,96.51
2017-11-21T17:29:45.980Z,95.84
2017-11-21T17:30:46.005Z,95.56
2017-11-21T17:31:46.025Z,95.84
2017-11-21T17:32:46.043Z,95.75
2017-11-21T17:33:46.064Z,95.65
2017-11-21T17:34:46.073Z,95.36
2017-11-21T17:35:46.098Z,95.75
2017-11-21T17:36:46.120Z,95.75
2017-11-21T17:37:46.140Z,95.46
2017-11-21T17:38:46.157Z,95.98
2017-11-21T17:39:46.178Z,96.32
2017-11-21T17:40:46.196Z,96.27
2017-11-21T17:41:46.218Z,96.22
2017-11-21T17:42:46.237Z,96.27
2017-11-21T17:43:46.257Z,96.32
2017-11-21T17:44:46.275Z,96.03
2017-11-21T17:45:46.299Z,95.75
2017-11-21T17:46:46.313Z,95.56
2017-11-21T17:47:46.334Z,95.17
2017-11-21T17:48:46.354Z,95.17
2017-11-21T17:49:46.376Z,95.84
2017-11-21T17:50:46.394Z,95.08
2017-11-21T17:51:46.413Z,95.41
2017-11-21T17:52:46.432Z,95.84
2017-11-21T17:53:46.472Z,95.94
2017-11-21T17:54:46.471Z,95.56
2017-11-21T17:55:46.493Z,95.08
2017-11-21T17:56:46.509Z,95.27
2017-11-21T17:57:46.531Z,94.89
2017-11-21T17:58:46.551Z,95.27
2017-11-21T17:59:46.571Z,94.70
2017-11-21T18:00:46.589Z,95.36
2017-11-21T18:01:46.615Z,93.98
2017-11-21T18:02:46.631Z,94.70
2017-11-21T18:03:46.654Z,95.56
2017-11-21T18:04:46.803Z,95.41
2017-11-21T18:05:46.687Z,95.84
2017-11-21T18:06:46.707Z,95.79
2017-11-21T18:07:46.739Z,94.98
2017-11-21T18:08:46.750Z,94.98
2017-11-21T18:09:46.776Z,94.60
2017-11-21T18:10:46.815Z,94.60
2017-11-21T18:11:46.805Z,94.65
2017-11-21T18:12:46.833Z,95.36
2017-11-21T18:13:46.848Z,95.56
2017-11-21T18:14:46.871Z,95.65
2017-11-21T18:15:46.885Z,95.79
2017-11-21T18:16:46.906Z,94.70
2017-11-21T18:17:46.929Z,94.98
2017-11-21T18:18:46.947Z,95.12
2017-11-21T18:19:46.964Z,94.98
2017-11-21T18:20:46.979Z,94.51
2017-11-21T18:21:47.005Z,94.13
2017-11-21T18:22:47.018Z,94.13
2017-11-21T18:23:47.049Z,94.51
2017-11-21T18:24:47.058Z,94.13
2017-11-21T18:25:47.077Z,94.70
2017-11-21T18:26:47.097Z,94.51
2017-11-21T18:27:47.120Z,94.03
2017-11-21T18:28:47.139Z,94.41
2017-11-21T18:29:47.160Z,93.93
2017-11-21T18:30:47.179Z,94.98
2017-11-21T18:31:47.200Z,95.08
2017-11-21T18:32:47.215Z,94.03
2017-11-21T18:33:47.240Z,94.13
2017-11-21T18:34:47.257Z,94.03
2017-11-21T18:35:47.279Z,94.03
2017-11-21T18:36:47.295Z,94.03
2017-11-21T18:37:47.318Z,95.17
2017-11-21T18:38:47.344Z,94.98
2017-11-21T18:39:47.356Z,94.03
2017-11-21T18:40:47.377Z,94.51
2017-11-21T18:41:47.395Z,93.55
2017-11-21T18:42:47.424Z,93.93
2017-11-21T18:43:47.432Z,93.55
2017-11-21T18:44:47.462Z,94.13
2017-11-21T18:45:47.478Z,94.03
2017-11-21T18:46:47.498Z,93.74
2017-11-21T18:47:47.513Z,94.41
2017-11-21T18:48:47.534Z,93.55
2017-11-21T18:49:47.551Z,93.65
2017-11-21T18:50:47.577Z,94.03
2017-11-21T18:51:47.594Z,94.13
2017-11-21T18:52:47.617Z,93.84
2017-11-21T18:53:47.640Z,93.74
2017-11-21T18:54:47.661Z,93.84
2017-11-21T18:55:47.683Z,93.84
2017-11-21T18:56:47.699Z,93.93
2017-11-21T18:57:47.712Z,93.70
2017-11-21T18:58:47.731Z,93.60
2017-11-21T18:59:47.748Z,94.17
2017-11-21T19:00:47.772Z,94.51
2017-11-21T19:01:47.790Z,94.41
2017-11-21T19:02:47.814Z,94.74
2017-11-21T19:03:47.825Z,94.08
2017-11-21T19:04:47.855Z,94.22
2017-11-21T19:05:47.875Z,94.27
2017-11-21T19:06:47.895Z,93.98
2017-11-21T19:07:47.908Z,94.13
2017-11-21T19:08:47.932Z,94.37
2017-11-21T19:09:47.946Z,94.46
2017-11-21T19:10:47.970Z,94.56
2017-11-21T19:11:48.002Z,94.17
2017-11-21T19:12:48.008Z,93.98
2017-11-21T19:13:48.019Z,93.79
2017-11-21T19:14:48.045Z,94.27
2017-11-21T19:15:48.082Z,93.74
2017-11-21T19:16:48.089Z,94.22
2017-11-21T19:17:48.104Z,93.32
2017-11-21T19:18:48.126Z,93.84
2017-11-21T19:19:48.159Z,93.70
2017-11-21T19:20:48.164Z,93.03
2017-11-21T19:21:48.185Z,93.89
2017-11-21T19:22:48.200Z,93.51
2017-11-21T19:23:48.239Z,93.98